sensor_id;sensor_type;location;lat;lon;timestamp;P1;durP1;ratioP1;P2;durP2;ratioP2
14251;SDS011;7210;51.502;10.722;2023-08-01T00:00:55;3.07;;;2.10;;
14251;SDS011;7210;51.502;10.722;2023-08-01T00:03:22;3.20;;;2.13;;
14251;SDS011;7210;51.502;10.722;2023-08-01T00:05:50;1.80;;;1.50;;
14251;SDS011;7210;51.502;10.722;2023-08-01T00:08:17;2.90;;;1.83;;
14251;SDS011;7210;51.502;10.722;2023-08-01T00:10:44;2.67;;;1.93;;
14251;SDS011;7210;51.502;10.722;2023-08-01T00:13:12;3.03;;;2.07;;
14251;SDS011;7210;51.502;10.722;2023-08-01T00:15:39;3.60;;;2.30;;
14251;SDS011;7210;51.502;10.722;2023-08-01T00:18:08;2.57;;;2.00;;
14251;SDS011;7210;51.502;10.722;2023-08-01T00:20:35;2.23;;;2.03;;
14251;SDS011;7210;51.502;10.722;2023-08-01T00:23:02;3.30;;;2.03;;
14251;SDS011;7210;51.502;10.722;2023-08-01T00:25:29;3.70;;;2.10;;
14251;SDS011;7210;51.502;10.722;2023-08-01T00:27:57;2.50;;;2.30;;
14251;SDS011;7210;51.502;10.722;2023-08-01T00:30:24;2.67;;;2.33;;
14251;SDS011;7210;51.502;10.722;2023-08-01T00:32:51;3.07;;;2.17;;
14251;SDS011;7210;51.502;10.722;2023-08-01T00:35:20;2.80;;;2.50;;
14251;SDS011;7210;51.502;10.722;2023-08-01T00:37:47;3.03;;;2.30;;
14251;SDS011;7210;51.502;10.722;2023-08-01T00:40:15;3.73;;;2.03;;
14251;SDS011;7210;51.502;10.722;2023-08-01T00:42:42;2.93;;;2.17;;
14251;SDS011;7210;51.502;10.722;2023-08-01T00:45:10;2.43;;;2.20;;
14251;SDS011;7210;51.502;10.722;2023-08-01T00:47:38;3.13;;;2.37;;
14251;SDS011;7210;51.502;10.722;2023-08-01T00:50:06;4.10;;;2.57;;
14251;SDS011;7210;51.502;10.722;2023-08-01T00:52:36;4.00;;;2.40;;
14251;SDS011;7210;51.502;10.722;2023-08-01T00:55:03;3.50;;;2.40;;
14251;SDS011;7210;51.502;10.722;2023-08-01T00:57:32;3.63;;;2.23;;
14251;SDS011;7210;51.502;10.722;2023-08-01T01:00:00;3.00;;;2.80;;
14251;SDS011;7210;51.502;10.722;2023-08-01T01:02:28;4.47;;;2.30;;
14251;SDS011;7210;51.502;10.722;2023-08-01T01:04:55;2.33;;;2.13;;
14251;SDS011;7210;51.502;10.722;2023-08-01T01:07:23;3.03;;;1.90;;
14251;SDS011;7210;51.502;10.722;2023-08-01T01:09:53;2.30;;;2.10;;
14251;SDS011;7210;51.502;10.722;2023-08-01T01:12:21;3.73;;;2.07;;
14251;SDS011;7210;51.502;10.722;2023-08-01T01:14:48;2.57;;;2.23;;
14251;SDS011;7210;51.502;10.722;2023-08-01T01:17:15;2.20;;;2.00;;
14251;SDS011;7210;51.502;10.722;2023-08-01T01:19:43;2.00;;;1.80;;
14251;SDS011;7210;51.502;10.722;2023-08-01T01:22:11;1.70;;;1.60;;
14251;SDS011;7210;51.502;10.722;2023-08-01T01:24:40;1.70;;;1.60;;
14251;SDS011;7210;51.502;10.722;2023-08-01T01:27:09;2.00;;;1.70;;
14251;SDS011;7210;51.502;10.722;2023-08-01T01:29:38;3.40;;;1.57;;
14251;SDS011;7210;51.502;10.722;2023-08-01T01:32:11;2.87;;;1.60;;
14251;SDS011;7210;51.502;10.722;2023-08-01T01:34:39;5.40;;;2.97;;
14251;SDS011;7210;51.502;10.722;2023-08-01T01:37:07;3.23;;;1.50;;
14251;SDS011;7210;51.502;10.722;2023-08-01T01:39:35;1.80;;;1.60;;
14251;SDS011;7210;51.502;10.722;2023-08-01T01:42:03;5.63;;;1.87;;
14251;SDS011;7210;51.502;10.722;2023-08-01T01:44:31;5.07;;;1.67;;
14251;SDS011;7210;51.502;10.722;2023-08-01T01:46:59;3.37;;;1.77;;
14251;SDS011;7210;51.502;10.722;2023-08-01T01:49:27;2.80;;;1.53;;
14251;SDS011;7210;51.502;10.722;2023-08-01T01:51:55;4.70;;;1.80;;
14251;SDS011;7210;51.502;10.722;2023-08-01T01:54:22;1.80;;;1.50;;
14251;SDS011;7210;51.502;10.722;2023-08-01T01:56:51;3.50;;;1.60;;
14251;SDS011;7210;51.502;10.722;2023-08-01T01:59:18;1.80;;;1.50;;
14251;SDS011;7210;51.502;10.722;2023-08-01T02:01:46;2.83;;;1.50;;
14251;SDS011;7210;51.502;10.722;2023-08-01T02:04:13;4.37;;;1.63;;
14251;SDS011;7210;51.502;10.722;2023-08-01T02:06:40;1.70;;;1.37;;
14251;SDS011;7210;51.502;10.722;2023-08-01T02:09:08;3.30;;;1.80;;
14251;SDS011;7210;51.502;10.722;2023-08-01T02:11:35;2.17;;;1.47;;
14251;SDS011;7210;51.502;10.722;2023-08-01T02:14:04;3.53;;;2.07;;
14251;SDS011;7210;51.502;10.722;2023-08-01T02:16:31;1.87;;;1.27;;
14251;SDS011;7210;51.502;10.722;2023-08-01T02:18:59;7.00;;;1.90;;
14251;SDS011;7210;51.502;10.722;2023-08-01T02:21:26;5.10;;;1.97;;
14251;SDS011;7210;51.502;10.722;2023-08-01T02:23:53;2.40;;;1.50;;
14251;SDS011;7210;51.502;10.722;2023-08-01T02:26:21;2.47;;;1.60;;
14251;SDS011;7210;51.502;10.722;2023-08-01T02:28:49;3.50;;;1.60;;
14251;SDS011;7210;51.502;10.722;2023-08-01T02:31:18;1.93;;;1.73;;
14251;SDS011;7210;51.502;10.722;2023-08-01T02:33:46;2.20;;;1.53;;
14251;SDS011;7210;51.502;10.722;2023-08-01T02:36:14;2.43;;;1.60;;
14251;SDS011;7210;51.502;10.722;2023-08-01T02:38:41;3.00;;;1.67;;
14251;SDS011;7210;51.502;10.722;2023-08-01T02:41:08;2.97;;;1.43;;
14251;SDS011;7210;51.502;10.722;2023-08-01T02:43:36;2.33;;;1.40;;
14251;SDS011;7210;51.502;10.722;2023-08-01T02:46:03;2.30;;;1.43;;
14251;SDS011;7210;51.502;10.722;2023-08-01T02:48:32;1.37;;;1.23;;
14251;SDS011;7210;51.502;10.722;2023-08-01T02:51:01;5.73;;;1.60;;
14251;SDS011;7210;51.502;10.722;2023-08-01T02:53:28;3.10;;;1.83;;
14251;SDS011;7210;51.502;10.722;2023-08-01T02:55:55;2.27;;;1.40;;
14251;SDS011;7210;51.502;10.722;2023-08-01T02:58:23;2.17;;;1.60;;
14251;SDS011;7210;51.502;10.722;2023-08-01T03:00:50;2.60;;;1.40;;
14251;SDS011;7210;51.502;10.722;2023-08-01T03:03:19;1.67;;;1.50;;
14251;SDS011;7210;51.502;10.722;2023-08-01T03:05:58;2.23;;;1.47;;
14251;SDS011;7210;51.502;10.722;2023-08-01T03:08:26;4.50;;;1.50;;
14251;SDS011;7210;51.502;10.722;2023-08-01T03:10:55;1.43;;;1.30;;
14251;SDS011;7210;51.502;10.722;2023-08-01T03:13:23;1.47;;;1.37;;
14251;SDS011;7210;51.502;10.722;2023-08-01T03:15:50;1.43;;;1.33;;
14251;SDS011;7210;51.502;10.722;2023-08-01T03:18:17;2.90;;;1.40;;
14251;SDS011;7210;51.502;10.722;2023-08-01T03:20:44;1.43;;;1.30;;
14251;SDS011;7210;51.502;10.722;2023-08-01T03:23:13;3.87;;;1.63;;
14251;SDS011;7210;51.502;10.722;2023-08-01T03:25:40;4.10;;;1.40;;
14251;SDS011;7210;51.502;10.722;2023-08-01T03:28:08;1.67;;;1.50;;
14251;SDS011;7210;51.502;10.722;2023-08-01T03:30:35;2.40;;;1.57;;
14251;SDS011;7210;51.502;10.722;2023-08-01T03:33:03;2.20;;;1.90;;
14251;SDS011;7210;51.502;10.722;2023-08-01T03:35:30;1.40;;;1.30;;
14251;SDS011;7210;51.502;10.722;2023-08-01T03:37:57;2.30;;;1.67;;
14251;SDS011;7210;51.502;10.722;2023-08-01T03:40:26;1.80;;;1.60;;
14251;SDS011;7210;51.502;10.722;2023-08-01T03:42:54;2.63;;;1.23;;
14251;SDS011;7210;51.502;10.722;2023-08-01T03:45:21;1.57;;;1.30;;
14251;SDS011;7210;51.502;10.722;2023-08-01T03:47:49;2.43;;;1.40;;
14251;SDS011;7210;51.502;10.722;2023-08-01T03:50:16;1.70;;;1.50;;
14251;SDS011;7210;51.502;10.722;2023-08-01T03:52:43;3.80;;;1.80;;
14251;SDS011;7210;51.502;10.722;2023-08-01T03:55:11;2.20;;;1.60;;
14251;SDS011;7210;51.502;10.722;2023-08-01T03:57:42;2.73;;;1.80;;
14251;SDS011;7210;51.502;10.722;2023-08-01T04:00:10;1.43;;;1.23;;
14251;SDS011;7210;51.502;10.722;2023-08-01T04:02:39;1.87;;;1.30;;
14251;SDS011;7210;51.502;10.722;2023-08-01T04:05:07;1.60;;;1.20;;
14251;SDS011;7210;51.502;10.722;2023-08-01T04:07:35;1.27;;;1.10;;
14251;SDS011;7210;51.502;10.722;2023-08-01T04:10:03;1.50;;;1.20;;
14251;SDS011;7210;51.502;10.722;2023-08-01T04:12:32;1.57;;;0.93;;
14251;SDS011;7210;51.502;10.722;2023-08-01T04:15:01;0.80;;;0.80;;
14251;SDS011;7210;51.502;10.722;2023-08-01T04:17:29;1.33;;;1.10;;
14251;SDS011;7210;51.502;10.722;2023-08-01T04:19:56;1.30;;;1.20;;
14251;SDS011;7210;51.502;10.722;2023-08-01T04:22:24;1.20;;;1.00;;
14251;SDS011;7210;51.502;10.722;2023-08-01T04:24:51;2.23;;;1.17;;
14251;SDS011;7210;51.502;10.722;2023-08-01T04:27:18;3.00;;;1.30;;
14251;SDS011;7210;51.502;10.722;2023-08-01T04:29:45;3.10;;;1.17;;
14251;SDS011;7210;51.502;10.722;2023-08-01T04:32:16;1.13;;;0.77;;
14251;SDS011;7210;51.502;10.722;2023-08-01T04:34:43;1.83;;;1.00;;
14251;SDS011;7210;51.502;10.722;2023-08-01T04:37:23;1.23;;;0.90;;
14251;SDS011;7210;51.502;10.722;2023-08-01T04:39:59;1.97;;;1.10;;
14251;SDS011;7210;51.502;10.722;2023-08-01T04:42:41;1.77;;;0.87;;
14251;SDS011;7210;51.502;10.722;2023-08-01T04:45:09;2.07;;;1.00;;
14251;SDS011;7210;51.502;10.722;2023-08-01T04:47:49;1.17;;;0.90;;
14251;SDS011;7210;51.502;10.722;2023-08-01T04:50:17;2.13;;;1.13;;
14251;SDS011;7210;51.502;10.722;2023-08-01T04:52:45;1.10;;;0.90;;
14251;SDS011;7210;51.502;10.722;2023-08-01T04:55:17;1.83;;;1.00;;
14251;SDS011;7210;51.502;10.722;2023-08-01T04:57:45;1.57;;;0.90;;
14251;SDS011;7210;51.502;10.722;2023-08-01T05:00:13;1.23;;;0.80;;
14251;SDS011;7210;51.502;10.722;2023-08-01T05:02:41;1.10;;;0.90;;
14251;SDS011;7210;51.502;10.722;2023-08-01T05:05:09;2.83;;;0.70;;
14251;SDS011;7210;51.502;10.722;2023-08-01T05:07:36;2.23;;;0.80;;
14251;SDS011;7210;51.502;10.722;2023-08-01T05:10:04;1.30;;;0.90;;
14251;SDS011;7210;51.502;10.722;2023-08-01T05:12:32;0.70;;;0.70;;
14251;SDS011;7210;51.502;10.722;2023-08-01T05:14:59;1.00;;;0.90;;
14251;SDS011;7210;51.502;10.722;2023-08-01T05:17:27;1.17;;;0.90;;
14251;SDS011;7210;51.502;10.722;2023-08-01T05:19:55;1.97;;;0.90;;
14251;SDS011;7210;51.502;10.722;2023-08-01T05:22:24;1.63;;;1.00;;
14251;SDS011;7210;51.502;10.722;2023-08-01T05:24:51;0.70;;;0.70;;
14251;SDS011;7210;51.502;10.722;2023-08-01T05:27:19;0.90;;;0.70;;
14251;SDS011;7210;51.502;10.722;2023-08-01T05:29:46;1.83;;;0.83;;
14251;SDS011;7210;51.502;10.722;2023-08-01T05:32:13;1.00;;;0.80;;
14251;SDS011;7210;51.502;10.722;2023-08-01T05:34:40;4.13;;;0.90;;
14251;SDS011;7210;51.502;10.722;2023-08-01T05:37:11;0.93;;;0.80;;
14251;SDS011;7210;51.502;10.722;2023-08-01T05:39:40;2.30;;;1.00;;
14251;SDS011;7210;51.502;10.722;2023-08-01T05:42:07;1.57;;;1.10;;
14251;SDS011;7210;51.502;10.722;2023-08-01T05:44:35;1.60;;;0.80;;
14251;SDS011;7210;51.502;10.722;2023-08-01T05:47:02;1.83;;;0.90;;
14251;SDS011;7210;51.502;10.722;2023-08-01T05:49:30;1.83;;;0.80;;
14251;SDS011;7210;51.502;10.722;2023-08-01T05:51:59;2.97;;;1.07;;
14251;SDS011;7210;51.502;10.722;2023-08-01T05:54:27;1.27;;;0.80;;
14251;SDS011;7210;51.502;10.722;2023-08-01T05:56:55;2.30;;;1.13;;
14251;SDS011;7210;51.502;10.722;2023-08-01T05:59:23;2.83;;;1.10;;
14251;SDS011;7210;51.502;10.722;2023-08-01T06:01:50;1.27;;;0.90;;
14251;SDS011;7210;51.502;10.722;2023-08-01T06:04:17;1.47;;;0.80;;
14251;SDS011;7210;51.502;10.722;2023-08-01T06:06:44;1.37;;;0.90;;
14251;SDS011;7210;51.502;10.722;2023-08-01T06:09:17;3.07;;;1.10;;
14251;SDS011;7210;51.502;10.722;2023-08-01T06:11:45;2.10;;;0.80;;
14251;SDS011;7210;51.502;10.722;2023-08-01T06:14:14;0.93;;;0.87;;
14251;SDS011;7210;51.502;10.722;2023-08-01T06:16:47;3.50;;;1.00;;
14251;SDS011;7210;51.502;10.722;2023-08-01T06:19:15;1.30;;;0.90;;
14251;SDS011;7210;51.502;10.722;2023-08-01T06:21:42;1.00;;;0.90;;
14251;SDS011;7210;51.502;10.722;2023-08-01T06:24:10;1.10;;;0.90;;
14251;SDS011;7210;51.502;10.722;2023-08-01T06:26:38;1.27;;;0.90;;
14251;SDS011;7210;51.502;10.722;2023-08-01T06:29:06;1.30;;;1.00;;
14251;SDS011;7210;51.502;10.722;2023-08-01T06:31:37;5.90;;;2.03;;
14251;SDS011;7210;51.502;10.722;2023-08-01T06:34:05;2.83;;;1.30;;
14251;SDS011;7210;51.502;10.722;2023-08-01T06:36:35;2.60;;;1.00;;
14251;SDS011;7210;51.502;10.722;2023-08-01T06:39:06;2.27;;;1.20;;
14251;SDS011;7210;51.502;10.722;2023-08-01T06:41:33;4.07;;;1.30;;
14251;SDS011;7210;51.502;10.722;2023-08-01T06:44:01;3.40;;;1.10;;
14251;SDS011;7210;51.502;10.722;2023-08-01T06:46:28;2.93;;;1.40;;
14251;SDS011;7210;51.502;10.722;2023-08-01T06:48:57;2.10;;;1.20;;
14251;SDS011;7210;51.502;10.722;2023-08-01T06:51:24;3.67;;;1.50;;
14251;SDS011;7210;51.502;10.722;2023-08-01T06:53:52;1.93;;;1.03;;
14251;SDS011;7210;51.502;10.722;2023-08-01T06:56:19;1.23;;;1.10;;
14251;SDS011;7210;51.502;10.722;2023-08-01T06:58:47;1.90;;;1.03;;
14251;SDS011;7210;51.502;10.722;2023-08-01T07:01:17;2.03;;;1.10;;
14251;SDS011;7210;51.502;10.722;2023-08-01T07:03:45;2.20;;;1.00;;
14251;SDS011;7210;51.502;10.722;2023-08-01T07:06:13;1.17;;;0.87;;
14251;SDS011;7210;51.502;10.722;2023-08-01T07:08:41;2.77;;;1.10;;
14251;SDS011;7210;51.502;10.722;2023-08-01T07:11:08;1.67;;;0.80;;
14251;SDS011;7210;51.502;10.722;2023-08-01T07:13:35;2.20;;;0.90;;
14251;SDS011;7210;51.502;10.722;2023-08-01T07:16:03;2.53;;;1.10;;
14251;SDS011;7210;51.502;10.722;2023-08-01T07:18:30;0.80;;;0.80;;
14251;SDS011;7210;51.502;10.722;2023-08-01T07:21:01;1.87;;;0.80;;
14251;SDS011;7210;51.502;10.722;2023-08-01T07:23:33;1.73;;;0.80;;
14251;SDS011;7210;51.502;10.722;2023-08-01T07:26:01;0.53;;;0.53;;
14251;SDS011;7210;51.502;10.722;2023-08-01T07:28:29;0.53;;;0.53;;
14251;SDS011;7210;51.502;10.722;2023-08-01T07:31:00;0.70;;;0.70;;
14251;SDS011;7210;51.502;10.722;2023-08-01T07:33:29;1.07;;;0.90;;
14251;SDS011;7210;51.502;10.722;2023-08-01T07:35:57;0.80;;;0.80;;
14251;SDS011;7210;51.502;10.722;2023-08-01T07:38:25;0.60;;;0.60;;
14251;SDS011;7210;51.502;10.722;2023-08-01T07:40:54;0.87;;;0.80;;
14251;SDS011;7210;51.502;10.722;2023-08-01T07:43:22;0.57;;;0.57;;
14251;SDS011;7210;51.502;10.722;2023-08-01T07:45:49;0.40;;;0.40;;
14251;SDS011;7210;51.502;10.722;2023-08-01T07:48:22;0.50;;;0.50;;
14251;SDS011;7210;51.502;10.722;2023-08-01T07:50:49;0.73;;;0.63;;
14251;SDS011;7210;51.502;10.722;2023-08-01T07:53:16;1.00;;;0.70;;
14251;SDS011;7210;51.502;10.722;2023-08-01T07:55:44;2.17;;;1.10;;
14251;SDS011;7210;51.502;10.722;2023-08-01T07:58:12;0.70;;;0.70;;
14251;SDS011;7210;51.502;10.722;2023-08-01T08:00:40;2.60;;;0.90;;
14251;SDS011;7210;51.502;10.722;2023-08-01T08:03:09;0.90;;;0.90;;
14251;SDS011;7210;51.502;10.722;2023-08-01T08:05:36;1.73;;;1.00;;
14251;SDS011;7210;51.502;10.722;2023-08-01T08:08:05;0.90;;;0.90;;
14251;SDS011;7210;51.502;10.722;2023-08-01T08:10:33;0.97;;;0.97;;
14251;SDS011;7210;51.502;10.722;2023-08-01T08:13:00;1.10;;;0.90;;
14251;SDS011;7210;51.502;10.722;2023-08-01T08:15:31;1.17;;;0.90;;
14251;SDS011;7210;51.502;10.722;2023-08-01T08:18:06;0.80;;;0.80;;
14251;SDS011;7210;51.502;10.722;2023-08-01T08:20:34;0.97;;;0.90;;
14251;SDS011;7210;51.502;10.722;2023-08-01T08:23:09;1.67;;;0.97;;
14251;SDS011;7210;51.502;10.722;2023-08-01T08:25:39;2.63;;;1.23;;
14251;SDS011;7210;51.502;10.722;2023-08-01T08:28:12;1.30;;;1.20;;
14251;SDS011;7210;51.502;10.722;2023-08-01T08:30:41;2.80;;;1.80;;
14251;SDS011;7210;51.502;10.722;2023-08-01T08:33:17;2.00;;;1.90;;
14251;SDS011;7210;51.502;10.722;2023-08-01T08:35:46;3.03;;;2.47;;
14251;SDS011;7210;51.502;10.722;2023-08-01T08:38:14;3.10;;;2.90;;
14251;SDS011;7210;51.502;10.722;2023-08-01T08:40:43;3.13;;;2.47;;
14251;SDS011;7210;51.502;10.722;2023-08-01T08:43:36;3.80;;;2.83;;
14251;SDS011;7210;51.502;10.722;2023-08-01T08:46:12;3.50;;;3.07;;
14251;SDS011;7210;51.502;10.722;2023-08-01T08:48:44;3.60;;;3.27;;
14251;SDS011;7210;51.502;10.722;2023-08-01T08:51:18;3.60;;;3.30;;
14251;SDS011;7210;51.502;10.722;2023-08-01T08:53:47;5.03;;;3.50;;
14251;SDS011;7210;51.502;10.722;2023-08-01T08:56:19;4.60;;;4.03;;
14251;SDS011;7210;51.502;10.722;2023-08-01T08:58:48;4.20;;;3.60;;
14251;SDS011;7210;51.502;10.722;2023-08-01T09:01:20;5.03;;;3.93;;
14251;SDS011;7210;51.502;10.722;2023-08-01T09:03:47;5.67;;;4.20;;
14251;SDS011;7210;51.502;10.722;2023-08-01T09:06:16;4.33;;;3.93;;
14251;SDS011;7210;51.502;10.722;2023-08-01T09:08:50;5.97;;;4.20;;
14251;SDS011;7210;51.502;10.722;2023-08-01T09:11:24;4.30;;;3.90;;
14251;SDS011;7210;51.502;10.722;2023-08-01T09:13:52;7.00;;;4.40;;
14251;SDS011;7210;51.502;10.722;2023-08-01T09:16:23;4.10;;;3.70;;
14251;SDS011;7210;51.502;10.722;2023-08-01T09:18:52;6.00;;;3.83;;
14251;SDS011;7210;51.502;10.722;2023-08-01T09:21:21;3.70;;;3.40;;
14251;SDS011;7210;51.502;10.722;2023-08-01T09:23:49;4.97;;;3.63;;
14251;SDS011;7210;51.502;10.722;2023-08-01T09:26:17;5.23;;;3.73;;
14251;SDS011;7210;51.502;10.722;2023-08-01T09:28:54;5.60;;;3.30;;
14251;SDS011;7210;51.502;10.722;2023-08-01T09:31:29;4.17;;;3.40;;
14251;SDS011;7210;51.502;10.722;2023-08-01T09:34:00;4.30;;;3.90;;
14251;SDS011;7210;51.502;10.722;2023-08-01T09:36:30;5.30;;;3.83;;
14251;SDS011;7210;51.502;10.722;2023-08-01T09:42:05;5.17;;;3.90;;
14251;SDS011;7210;51.502;10.722;2023-08-01T09:44:52;5.30;;;3.93;;
14251;SDS011;7210;51.502;10.722;2023-08-01T09:47:42;4.50;;;3.67;;
14251;SDS011;7210;51.502;10.722;2023-08-01T09:51:10;7.17;;;3.90;;
14251;SDS011;7210;51.502;10.722;2023-08-01T09:54:48;4.50;;;3.97;;
14251;SDS011;7210;51.502;10.722;2023-08-01T09:57:51;5.30;;;3.80;;
14251;SDS011;7210;51.502;10.722;2023-08-01T10:01:11;5.07;;;3.87;;
14251;SDS011;7210;51.502;10.722;2023-08-01T10:11:46;7.80;;;4.60;;
14251;SDS011;7210;51.502;10.722;2023-08-01T10:14:48;6.50;;;4.53;;
14251;SDS011;7210;51.502;10.722;2023-08-01T10:21:06;6.33;;;5.10;;
14251;SDS011;7210;51.502;10.722;2023-08-01T10:23:39;6.30;;;4.93;;
14251;SDS011;7210;51.502;10.722;2023-08-01T10:26:08;7.10;;;5.17;;
14251;SDS011;7210;51.502;10.722;2023-08-01T10:28:38;7.03;;;5.40;;
14251;SDS011;7210;51.502;10.722;2023-08-01T10:31:08;7.57;;;5.57;;
14251;SDS011;7210;51.502;10.722;2023-08-01T10:33:40;7.27;;;5.90;;
14251;SDS011;7210;51.502;10.722;2023-08-01T10:36:12;8.53;;;5.73;;
14251;SDS011;7210;51.502;10.722;2023-08-01T10:38:49;8.00;;;5.87;;
14251;SDS011;7210;51.502;10.722;2023-08-01T10:41:19;6.20;;;5.60;;
14251;SDS011;7210;51.502;10.722;2023-08-01T10:43:48;6.57;;;5.20;;
14251;SDS011;7210;51.502;10.722;2023-08-01T10:46:16;6.97;;;6.30;;
14251;SDS011;7210;51.502;10.722;2023-08-01T10:48:54;7.80;;;5.90;;
14251;SDS011;7210;51.502;10.722;2023-08-01T10:51:21;7.30;;;6.20;;
14251;SDS011;7210;51.502;10.722;2023-08-01T10:53:50;7.03;;;6.30;;
14251;SDS011;7210;51.502;10.722;2023-08-01T10:56:19;6.97;;;6.27;;
14251;SDS011;7210;51.502;10.722;2023-08-01T10:58:46;7.50;;;6.27;;
14251;SDS011;7210;51.502;10.722;2023-08-01T11:01:14;8.80;;;6.80;;
14251;SDS011;7210;51.502;10.722;2023-08-01T11:03:41;7.67;;;6.87;;
14251;SDS011;7210;51.502;10.722;2023-08-01T11:06:12;8.00;;;6.50;;
14251;SDS011;7210;51.502;10.722;2023-08-01T11:08:44;7.07;;;6.37;;
14251;SDS011;7210;51.502;10.722;2023-08-01T11:11:14;6.40;;;5.80;;
14251;SDS011;7210;51.502;10.722;2023-08-01T11:13:49;7.07;;;6.37;;
14251;SDS011;7210;51.502;10.722;2023-08-01T11:16:24;7.13;;;6.43;;
14251;SDS011;7210;51.502;10.722;2023-08-01T11:18:52;7.23;;;6.13;;
14251;SDS011;7210;51.502;10.722;2023-08-01T11:21:25;6.70;;;6.10;;
14251;SDS011;7210;51.502;10.722;2023-08-01T11:23:53;6.50;;;5.90;;
14251;SDS011;7210;51.502;10.722;2023-08-01T11:26:24;6.67;;;5.70;;
14251;SDS011;7210;51.502;10.722;2023-08-01T11:28:51;6.80;;;5.87;;
14251;SDS011;7210;51.502;10.722;2023-08-01T11:31:18;6.33;;;5.73;;
14251;SDS011;7210;51.502;10.722;2023-08-01T11:33:54;6.40;;;5.67;;
14251;SDS011;7210;51.502;10.722;2023-08-01T11:36:22;6.03;;;5.50;;
14251;SDS011;7210;51.502;10.722;2023-08-01T11:38:53;6.17;;;5.63;;
14251;SDS011;7210;51.502;10.722;2023-08-01T11:41:25;6.87;;;5.63;;
14251;SDS011;7210;51.502;10.722;2023-08-01T11:43:54;5.37;;;4.87;;
14251;SDS011;7210;51.502;10.722;2023-08-01T11:46:22;10.53;;;5.53;;
14251;SDS011;7210;51.502;10.722;2023-08-01T11:48:56;6.50;;;5.90;;
14251;SDS011;7210;51.502;10.722;2023-08-01T11:51:25;7.03;;;6.27;;
14251;SDS011;7210;51.502;10.722;2023-08-01T11:53:57;7.77;;;5.93;;
14251;SDS011;7210;51.502;10.722;2023-08-01T11:56:26;6.30;;;5.70;;
14251;SDS011;7210;51.502;10.722;2023-08-01T11:58:54;6.30;;;5.80;;
14251;SDS011;7210;51.502;10.722;2023-08-01T12:01:21;5.57;;;5.00;;
14251;SDS011;7210;51.502;10.722;2023-08-01T12:03:49;6.57;;;5.77;;
14251;SDS011;7210;51.502;10.722;2023-08-01T12:06:18;7.17;;;5.80;;
14251;SDS011;7210;51.502;10.722;2023-08-01T12:08:48;7.90;;;6.10;;
14251;SDS011;7210;51.502;10.722;2023-08-01T12:11:20;6.77;;;6.00;;
14251;SDS011;7210;51.502;10.722;2023-08-01T12:14:00;8.40;;;6.10;;
14251;SDS011;7210;51.502;10.722;2023-08-01T12:16:29;7.03;;;5.53;;
14251;SDS011;7210;51.502;10.722;2023-08-01T12:18:56;6.50;;;5.60;;
14251;SDS011;7210;51.502;10.722;2023-08-01T12:21:24;6.10;;;5.50;;
14251;SDS011;7210;51.502;10.722;2023-08-01T12:23:51;5.53;;;5.00;;
14251;SDS011;7210;51.502;10.722;2023-08-01T12:26:18;4.10;;;3.70;;
14251;SDS011;7210;51.502;10.722;2023-08-01T12:28:46;4.37;;;3.67;;
14251;SDS011;7210;51.502;10.722;2023-08-01T12:31:22;4.40;;;3.67;;
14251;SDS011;7210;51.502;10.722;2023-08-01T12:33:50;3.43;;;2.73;;
14251;SDS011;7210;51.502;10.722;2023-08-01T12:36:18;3.50;;;3.00;;
14251;SDS011;7210;51.502;10.722;2023-08-01T12:38:46;6.30;;;3.40;;
14251;SDS011;7210;51.502;10.722;2023-08-01T12:41:14;5.10;;;3.07;;
14251;SDS011;7210;51.502;10.722;2023-08-01T12:43:42;4.17;;;3.60;;
14251;SDS011;7210;51.502;10.722;2023-08-01T12:46:10;3.57;;;3.27;;
14251;SDS011;7210;51.502;10.722;2023-08-01T12:48:38;3.97;;;3.03;;
14251;SDS011;7210;51.502;10.722;2023-08-01T12:51:07;3.83;;;2.77;;
14251;SDS011;7210;51.502;10.722;2023-08-01T12:53:38;3.57;;;3.10;;
14251;SDS011;7210;51.502;10.722;2023-08-01T12:56:08;3.40;;;2.97;;
14251;SDS011;7210;51.502;10.722;2023-08-01T12:58:36;4.43;;;2.87;;
14251;SDS011;7210;51.502;10.722;2023-08-01T13:01:03;3.83;;;3.37;;
14251;SDS011;7210;51.502;10.722;2023-08-01T13:03:30;3.70;;;3.43;;
14251;SDS011;7210;51.502;10.722;2023-08-01T13:05:59;4.23;;;3.07;;
14251;SDS011;7210;51.502;10.722;2023-08-01T13:08:26;5.17;;;3.60;;
14251;SDS011;7210;51.502;10.722;2023-08-01T13:10:54;5.13;;;3.40;;
14251;SDS011;7210;51.502;10.722;2023-08-01T13:13:25;3.70;;;3.40;;
14251;SDS011;7210;51.502;10.722;2023-08-01T13:15:53;4.00;;;3.60;;
14251;SDS011;7210;51.502;10.722;2023-08-01T13:18:22;4.17;;;3.40;;
14251;SDS011;7210;51.502;10.722;2023-08-01T13:20:50;4.53;;;3.37;;
14251;SDS011;7210;51.502;10.722;2023-08-01T13:23:20;4.00;;;2.90;;
14251;SDS011;7210;51.502;10.722;2023-08-01T13:25:48;3.53;;;3.23;;
14251;SDS011;7210;51.502;10.722;2023-08-01T13:28:16;4.10;;;3.40;;
14251;SDS011;7210;51.502;10.722;2023-08-01T13:30:43;3.50;;;2.67;;
14251;SDS011;7210;51.502;10.722;2023-08-01T13:33:18;3.30;;;2.83;;
14251;SDS011;7210;51.502;10.722;2023-08-01T13:35:45;3.03;;;2.53;;
14251;SDS011;7210;51.502;10.722;2023-08-01T13:38:17;3.40;;;2.93;;
14251;SDS011;7210;51.502;10.722;2023-08-01T13:40:45;4.47;;;2.93;;
14251;SDS011;7210;51.502;10.722;2023-08-01T13:43:13;3.87;;;2.90;;
14251;SDS011;7210;51.502;10.722;2023-08-01T13:48:27;3.37;;;2.50;;
14251;SDS011;7210;51.502;10.722;2023-08-01T13:51:12;4.07;;;2.60;;
14251;SDS011;7210;51.502;10.722;2023-08-01T13:53:40;2.20;;;2.00;;
14251;SDS011;7210;51.502;10.722;2023-08-01T13:56:13;2.97;;;2.60;;
14251;SDS011;7210;51.502;10.722;2023-08-01T13:58:42;2.47;;;2.20;;
14251;SDS011;7210;51.502;10.722;2023-08-01T14:01:09;3.07;;;2.10;;
14251;SDS011;7210;51.502;10.722;2023-08-01T14:06:36;2.90;;;2.10;;
14251;SDS011;7210;51.502;10.722;2023-08-01T14:09:06;4.07;;;2.40;;
14251;SDS011;7210;51.502;10.722;2023-08-01T14:11:35;2.50;;;2.30;;
14251;SDS011;7210;51.502;10.722;2023-08-01T14:14:03;5.07;;;2.40;;
14251;SDS011;7210;51.502;10.722;2023-08-01T14:16:36;3.60;;;2.20;;
14251;SDS011;7210;51.502;10.722;2023-08-01T14:19:12;6.10;;;2.27;;
14251;SDS011;7210;51.502;10.722;2023-08-01T14:21:39;6.43;;;3.20;;
14251;SDS011;7210;51.502;10.722;2023-08-01T14:24:06;11.57;;;3.70;;
14251;SDS011;7210;51.502;10.722;2023-08-01T14:26:35;7.80;;;4.03;;
14251;SDS011;7210;51.502;10.722;2023-08-01T14:29:03;11.27;;;4.40;;
14251;SDS011;7210;51.502;10.722;2023-08-01T14:31:30;6.97;;;4.47;;
14251;SDS011;7210;51.502;10.722;2023-08-01T14:33:57;7.17;;;4.30;;
14251;SDS011;7210;51.502;10.722;2023-08-01T14:36:24;8.37;;;4.13;;
14251;SDS011;7210;51.502;10.722;2023-08-01T14:38:52;4.60;;;3.50;;
14251;SDS011;7210;51.502;10.722;2023-08-01T14:41:20;5.23;;;3.40;;
14251;SDS011;7210;51.502;10.722;2023-08-01T14:43:50;2.90;;;2.70;;
14251;SDS011;7210;51.502;10.722;2023-08-01T14:46:28;5.43;;;3.93;;
14251;SDS011;7210;51.502;10.722;2023-08-01T14:49:29;3.00;;;2.70;;
14251;SDS011;7210;51.502;10.722;2023-08-01T14:52:36;3.70;;;2.70;;
14251;SDS011;7210;51.502;10.722;2023-08-01T14:59:16;3.43;;;3.13;;
14251;SDS011;7210;51.502;10.722;2023-08-01T15:02:21;3.37;;;3.07;;
14251;SDS011;7210;51.502;10.722;2023-08-01T15:06:20;3.60;;;3.00;;
14251;SDS011;7210;51.502;10.722;2023-08-01T15:09:09;3.27;;;2.80;;
14251;SDS011;7210;51.502;10.722;2023-08-01T15:12:24;5.40;;;2.83;;
14251;SDS011;7210;51.502;10.722;2023-08-01T15:15:39;3.77;;;3.07;;
14251;SDS011;7210;51.502;10.722;2023-08-01T15:18:07;3.43;;;2.70;;
14251;SDS011;7210;51.502;10.722;2023-08-01T15:20:36;3.10;;;2.80;;
14251;SDS011;7210;51.502;10.722;2023-08-01T15:23:06;3.87;;;3.00;;
14251;SDS011;7210;51.502;10.722;2023-08-01T15:25:33;3.00;;;2.67;;
14251;SDS011;7210;51.502;10.722;2023-08-01T15:28:01;3.97;;;3.40;;
14251;SDS011;7210;51.502;10.722;2023-08-01T15:30:28;3.20;;;2.90;;
14251;SDS011;7210;51.502;10.722;2023-08-01T15:32:57;4.03;;;3.10;;